sensor_id;sensor_type;location;lat;lon;timestamp;P1;durP1;ratioP1;P2;durP2;ratioP2
68989;SDS011;56046;47.270;11.368;2023-08-06T00:01:35;4.63;;;1.80;;
68989;SDS011;56046;47.270;11.368;2023-08-06T00:04:00;4.37;;;2.23;;
68989;SDS011;56046;47.270;11.368;2023-08-06T00:06:26;4.20;;;2.00;;
68989;SDS011;56046;47.270;11.368;2023-08-06T00:08:51;5.53;;;2.83;;
68989;SDS011;56046;47.270;11.368;2023-08-06T00:11:16;4.80;;;2.50;;
68989;SDS011;56046;47.270;11.368;2023-08-06T00:13:41;5.70;;;2.90;;
68989;SDS011;56046;47.270;11.368;2023-08-06T00:16:13;5.70;;;2.80;;
68989;SDS011;56046;47.270;11.368;2023-08-06T00:18:38;5.75;;;2.50;;
68989;SDS011;56046;47.270;11.368;2023-08-06T00:21:04;4.95;;;2.42;;
68989;SDS011;56046;47.270;11.368;2023-08-06T00:23:29;6.33;;;2.80;;
68989;SDS011;56046;47.270;11.368;2023-08-06T00:25:54;6.73;;;2.47;;
68989;SDS011;56046;47.270;11.368;2023-08-06T00:28:20;3.93;;;2.33;;
68989;SDS011;56046;47.270;11.368;2023-08-06T00:30:45;5.37;;;2.70;;
68989;SDS011;56046;47.270;11.368;2023-08-06T00:33:10;6.00;;;2.60;;
68989;SDS011;56046;47.270;11.368;2023-08-06T00:35:35;3.23;;;1.93;;
68989;SDS011;56046;47.270;11.368;2023-08-06T00:38:01;3.97;;;2.17;;
68989;SDS011;56046;47.270;11.368;2023-08-06T00:40:26;5.83;;;2.23;;
68989;SDS011;56046;47.270;11.368;2023-08-06T00:42:53;3.67;;;2.10;;
68989;SDS011;56046;47.270;11.368;2023-08-06T00:45:18;4.40;;;2.47;;
68989;SDS011;56046;47.270;11.368;2023-08-06T00:47:44;3.83;;;2.20;;
68989;SDS011;56046;47.270;11.368;2023-08-06T00:50:09;3.80;;;1.93;;
68989;SDS011;56046;47.270;11.368;2023-08-06T00:52:34;3.93;;;1.80;;
68989;SDS011;56046;47.270;11.368;2023-08-06T00:55:00;3.90;;;2.20;;
68989;SDS011;56046;47.270;11.368;2023-08-06T00:57:25;6.03;;;2.40;;
68989;SDS011;56046;47.270;11.368;2023-08-06T00:59:51;4.93;;;2.53;;
68989;SDS011;56046;47.270;11.368;2023-08-06T01:02:17;4.45;;;2.25;;
68989;SDS011;56046;47.270;11.368;2023-08-06T01:04:42;4.43;;;2.13;;
68989;SDS011;56046;47.270;11.368;2023-08-06T01:12:25;4.68;;;2.20;;
68989;SDS011;56046;47.270;11.368;2023-08-06T01:14:53;4.45;;;2.33;;
68989;SDS011;56046;47.270;11.368;2023-08-06T01:17:23;3.67;;;2.15;;
68989;SDS011;56046;47.270;11.368;2023-08-06T01:19:48;4.27;;;2.13;;
68989;SDS011;56046;47.270;11.368;2023-08-06T01:22:13;3.93;;;2.30;;
68989;SDS011;56046;47.270;11.368;2023-08-06T01:24:39;3.73;;;2.10;;
68989;SDS011;56046;47.270;11.368;2023-08-06T01:29:31;4.27;;;2.50;;
68989;SDS011;56046;47.270;11.368;2023-08-06T01:31:59;5.90;;;2.25;;
68989;SDS011;56046;47.270;11.368;2023-08-06T01:34:25;4.97;;;2.30;;
68989;SDS011;56046;47.270;11.368;2023-08-06T01:36:51;5.18;;;2.63;;
68989;SDS011;56046;47.270;11.368;2023-08-06T01:39:17;5.10;;;2.90;;
68989;SDS011;56046;47.270;11.368;2023-08-06T01:41:45;7.32;;;2.50;;
68989;SDS011;56046;47.270;11.368;2023-08-06T01:44:11;4.43;;;2.50;;
68989;SDS011;56046;47.270;11.368;2023-08-06T01:46:36;4.27;;;2.00;;
68989;SDS011;56046;47.270;11.368;2023-08-06T01:49:01;5.23;;;2.43;;
68989;SDS011;56046;47.270;11.368;2023-08-06T01:51:26;3.80;;;1.90;;
68989;SDS011;56046;47.270;11.368;2023-08-06T01:53:51;4.23;;;2.10;;
68989;SDS011;56046;47.270;11.368;2023-08-06T01:56:17;3.67;;;1.70;;
68989;SDS011;56046;47.270;11.368;2023-08-06T01:58:42;3.90;;;2.20;;
68989;SDS011;56046;47.270;11.368;2023-08-06T02:01:07;4.83;;;2.37;;
68989;SDS011;56046;47.270;11.368;2023-08-06T02:03:32;5.00;;;2.23;;
68989;SDS011;56046;47.270;11.368;2023-08-06T02:05:58;4.10;;;2.17;;
68989;SDS011;56046;47.270;11.368;2023-08-06T02:08:23;5.30;;;2.40;;
68989;SDS011;56046;47.270;11.368;2023-08-06T02:10:48;5.97;;;2.13;;
68989;SDS011;56046;47.270;11.368;2023-08-06T02:13:14;6.63;;;2.33;;
68989;SDS011;56046;47.270;11.368;2023-08-06T02:15:45;4.07;;;2.13;;
68989;SDS011;56046;47.270;11.368;2023-08-06T02:18:12;4.70;;;2.38;;
68989;SDS011;56046;47.270;11.368;2023-08-06T02:20:38;5.30;;;2.00;;
68989;SDS011;56046;47.270;11.368;2023-08-06T02:23:03;5.23;;;2.60;;
68989;SDS011;56046;47.270;11.368;2023-08-06T02:25:28;6.17;;;2.30;;
68989;SDS011;56046;47.270;11.368;2023-08-06T02:27:53;4.07;;;1.70;;
68989;SDS011;56046;47.270;11.368;2023-08-06T02:30:19;3.43;;;1.90;;
68989;SDS011;56046;47.270;11.368;2023-08-06T02:32:44;4.83;;;1.90;;
68989;SDS011;56046;47.270;11.368;2023-08-06T02:35:09;5.20;;;1.77;;
68989;SDS011;56046;47.270;11.368;2023-08-06T02:37:35;3.53;;;1.90;;
68989;SDS011;56046;47.270;11.368;2023-08-06T02:40:00;4.50;;;1.93;;
68989;SDS011;56046;47.270;11.368;2023-08-06T02:42:25;3.90;;;2.00;;
68989;SDS011;56046;47.270;11.368;2023-08-06T02:44:52;5.20;;;2.22;;
68989;SDS011;56046;47.270;11.368;2023-08-06T02:47:17;4.50;;;1.93;;
68989;SDS011;56046;47.270;11.368;2023-08-06T02:49:43;4.67;;;1.90;;
68989;SDS011;56046;47.270;11.368;2023-08-06T02:52:08;4.32;;;1.98;;
68989;SDS011;56046;47.270;11.368;2023-08-06T02:54:33;5.30;;;2.00;;
68989;SDS011;56046;47.270;11.368;2023-08-06T02:56:58;4.80;;;2.00;;
68989;SDS011;56046;47.270;11.368;2023-08-06T02:59:24;3.77;;;2.03;;
68989;SDS011;56046;47.270;11.368;2023-08-06T03:01:49;3.73;;;1.90;;
68989;SDS011;56046;47.270;11.368;2023-08-06T03:04:14;4.23;;;1.60;;
68989;SDS011;56046;47.270;11.368;2023-08-06T03:06:39;3.47;;;1.73;;
68989;SDS011;56046;47.270;11.368;2023-08-06T03:09:05;2.90;;;1.50;;
68989;SDS011;56046;47.270;11.368;2023-08-06T03:11:30;4.90;;;1.67;;
68989;SDS011;56046;47.270;11.368;2023-08-06T03:13:55;4.57;;;1.80;;
68989;SDS011;56046;47.270;11.368;2023-08-06T03:16:20;7.80;;;1.97;;
68989;SDS011;56046;47.270;11.368;2023-08-06T03:18:46;4.10;;;2.10;;
68989;SDS011;56046;47.270;11.368;2023-08-06T03:21:11;5.03;;;1.97;;
68989;SDS011;56046;47.270;11.368;2023-08-06T03:23:36;3.38;;;1.48;;
68989;SDS011;56046;47.270;11.368;2023-08-06T03:26:02;3.17;;;1.80;;
68989;SDS011;56046;47.270;11.368;2023-08-06T03:28:27;4.00;;;1.37;;
68989;SDS011;56046;47.270;11.368;2023-08-06T03:31:02;3.00;;;1.47;;
68989;SDS011;56046;47.270;11.368;2023-08-06T03:33:27;3.33;;;1.70;;
68989;SDS011;56046;47.270;11.368;2023-08-06T03:35:53;3.87;;;1.93;;
68989;SDS011;56046;47.270;11.368;2023-08-06T03:38:18;4.17;;;1.67;;
68989;SDS011;56046;47.270;11.368;2023-08-06T03:40:43;3.07;;;1.40;;
68989;SDS011;56046;47.270;11.368;2023-08-06T03:43:08;3.27;;;1.63;;
68989;SDS011;56046;47.270;11.368;2023-08-06T03:45:34;2.80;;;1.47;;
68989;SDS011;56046;47.270;11.368;2023-08-06T03:47:59;3.20;;;1.47;;
68989;SDS011;56046;47.270;11.368;2023-08-06T03:50:24;2.63;;;1.47;;
68989;SDS011;56046;47.270;11.368;2023-08-06T03:52:49;2.63;;;1.57;;
68989;SDS011;56046;47.270;11.368;2023-08-06T03:55:15;2.30;;;1.20;;
68989;SDS011;56046;47.270;11.368;2023-08-06T03:57:40;5.03;;;2.00;;
68989;SDS011;56046;47.270;11.368;2023-08-06T04:00:06;3.17;;;1.53;;
68989;SDS011;56046;47.270;11.368;2023-08-06T04:02:32;3.97;;;1.77;;
68989;SDS011;56046;47.270;11.368;2023-08-06T04:04:57;3.20;;;1.40;;
68989;SDS011;56046;47.270;11.368;2023-08-06T04:07:24;2.95;;;1.70;;
68989;SDS011;56046;47.270;11.368;2023-08-06T04:09:57;3.20;;;1.70;;
68989;SDS011;56046;47.270;11.368;2023-08-06T04:12:22;5.10;;;1.70;;
68989;SDS011;56046;47.270;11.368;2023-08-06T04:14:48;5.40;;;1.83;;
68989;SDS011;56046;47.270;11.368;2023-08-06T04:17:13;2.83;;;1.50;;
68989;SDS011;56046;47.270;11.368;2023-08-06T04:19:38;3.70;;;1.70;;
68989;SDS011;56046;47.270;11.368;2023-08-06T04:22:03;3.30;;;1.63;;
68989;SDS011;56046;47.270;11.368;2023-08-06T04:24:29;3.23;;;1.50;;
68989;SDS011;56046;47.270;11.368;2023-08-06T04:26:54;5.20;;;1.50;;
68989;SDS011;56046;47.270;11.368;2023-08-06T04:29:19;4.23;;;1.30;;
68989;SDS011;56046;47.270;11.368;2023-08-06T04:31:44;3.73;;;1.47;;
68989;SDS011;56046;47.270;11.368;2023-08-06T04:34:10;6.40;;;1.50;;
68989;SDS011;56046;47.270;11.368;2023-08-06T04:36:35;2.87;;;1.50;;
68989;SDS011;56046;47.270;11.368;2023-08-06T04:39:00;4.17;;;1.60;;
68989;SDS011;56046;47.270;11.368;2023-08-06T04:41:25;3.20;;;1.40;;
68989;SDS011;56046;47.270;11.368;2023-08-06T04:43:51;2.67;;;1.40;;
68989;SDS011;56046;47.270;11.368;2023-08-06T04:46:16;3.07;;;1.30;;
68989;SDS011;56046;47.270;11.368;2023-08-06T04:48:41;3.43;;;1.67;;
68989;SDS011;56046;47.270;11.368;2023-08-06T04:51:06;3.43;;;1.50;;
68989;SDS011;56046;47.270;11.368;2023-08-06T04:53:32;5.07;;;1.57;;
68989;SDS011;56046;47.270;11.368;2023-08-06T04:55:57;2.03;;;1.40;;
68989;SDS011;56046;47.270;11.368;2023-08-06T04:58:22;4.87;;;1.60;;
68989;SDS011;56046;47.270;11.368;2023-08-06T05:00:47;4.67;;;1.50;;
68989;SDS011;56046;47.270;11.368;2023-08-06T05:03:13;3.10;;;1.53;;
68989;SDS011;56046;47.270;11.368;2023-08-06T05:05:39;3.13;;;1.30;;
68989;SDS011;56046;47.270;11.368;2023-08-06T05:08:05;2.57;;;1.50;;
68989;SDS011;56046;47.270;11.368;2023-08-06T05:10:30;2.40;;;0.93;;
68989;SDS011;56046;47.270;11.368;2023-08-06T05:12:55;2.43;;;1.00;;
68989;SDS011;56046;47.270;11.368;2023-08-06T05:15:20;2.10;;;1.20;;
68989;SDS011;56046;47.270;11.368;2023-08-06T05:17:46;3.77;;;1.67;;
68989;SDS011;56046;47.270;11.368;2023-08-06T05:20:11;3.53;;;1.67;;
68989;SDS011;56046;47.270;11.368;2023-08-06T05:22:36;4.40;;;1.77;;
68989;SDS011;56046;47.270;11.368;2023-08-06T05:25:04;4.07;;;1.77;;
68989;SDS011;56046;47.270;11.368;2023-08-06T05:27:31;3.88;;;2.00;;
68989;SDS011;56046;47.270;11.368;2023-08-06T05:29:56;5.53;;;1.80;;
68989;SDS011;56046;47.270;11.368;2023-08-06T05:32:22;4.63;;;1.67;;
68989;SDS011;56046;47.270;11.368;2023-08-06T05:34:47;2.60;;;1.53;;
68989;SDS011;56046;47.270;11.368;2023-08-06T05:37:12;2.80;;;1.70;;
68989;SDS011;56046;47.270;11.368;2023-08-06T05:39:38;2.97;;;1.70;;
68989;SDS011;56046;47.270;11.368;2023-08-06T05:42:03;3.63;;;1.90;;
68989;SDS011;56046;47.270;11.368;2023-08-06T05:44:28;4.53;;;1.70;;
68989;SDS011;56046;47.270;11.368;2023-08-06T05:46:53;3.10;;;1.87;;
68989;SDS011;56046;47.270;11.368;2023-08-06T05:49:19;3.40;;;1.90;;
68989;SDS011;56046;47.270;11.368;2023-08-06T05:51:44;2.60;;;1.20;;
68989;SDS011;56046;47.270;11.368;2023-08-06T05:54:09;2.97;;;1.70;;
68989;SDS011;56046;47.270;11.368;2023-08-06T05:56:34;2.80;;;1.30;;
68989;SDS011;56046;47.270;11.368;2023-08-06T05:59:00;2.93;;;1.60;;
68989;SDS011;56046;47.270;11.368;2023-08-06T06:01:25;3.20;;;1.97;;
68989;SDS011;56046;47.270;11.368;2023-08-06T06:03:50;3.67;;;1.90;;
68989;SDS011;56046;47.270;11.368;2023-08-06T06:06:15;3.53;;;1.50;;
68989;SDS011;56046;47.270;11.368;2023-08-06T06:08:42;3.08;;;1.35;;
68989;SDS011;56046;47.270;11.368;2023-08-06T06:11:07;3.90;;;1.67;;
68989;SDS011;56046;47.270;11.368;2023-08-06T06:13:33;4.20;;;2.10;;
68989;SDS011;56046;47.270;11.368;2023-08-06T06:15:58;3.00;;;1.40;;
68989;SDS011;56046;47.270;11.368;2023-08-06T06:18:23;2.43;;;1.30;;
68989;SDS011;56046;47.270;11.368;2023-08-06T06:20:48;2.70;;;1.70;;
68989;SDS011;56046;47.270;11.368;2023-08-06T06:23:13;3.23;;;1.57;;
68989;SDS011;56046;47.270;11.368;2023-08-06T06:25:43;2.67;;;1.42;;
68989;SDS011;56046;47.270;11.368;2023-08-06T06:28:08;2.65;;;1.38;;
68989;SDS011;56046;47.270;11.368;2023-08-06T06:30:34;4.07;;;1.60;;
68989;SDS011;56046;47.270;11.368;2023-08-06T06:32:59;4.07;;;1.57;;
68989;SDS011;56046;47.270;11.368;2023-08-06T06:35:24;2.80;;;1.40;;
68989;SDS011;56046;47.270;11.368;2023-08-06T06:37:49;4.57;;;1.30;;
68989;SDS011;56046;47.270;11.368;2023-08-06T06:40:15;2.70;;;1.20;;
68989;SDS011;56046;47.270;11.368;2023-08-06T06:42:40;2.20;;;1.40;;
68989;SDS011;56046;47.270;11.368;2023-08-06T06:45:05;2.17;;;1.33;;
68989;SDS011;56046;47.270;11.368;2023-08-06T06:47:31;3.50;;;1.07;;
68989;SDS011;56046;47.270;11.368;2023-08-06T06:49:56;2.17;;;0.90;;
68989;SDS011;56046;47.270;11.368;2023-08-06T06:52:21;2.60;;;1.37;;
68989;SDS011;56046;47.270;11.368;2023-08-06T06:54:46;2.40;;;1.37;;
68989;SDS011;56046;47.270;11.368;2023-08-06T06:57:12;3.07;;;1.30;;
68989;SDS011;56046;47.270;11.368;2023-08-06T06:59:37;3.10;;;1.23;;
68989;SDS011;56046;47.270;11.368;2023-08-06T07:02:03;2.72;;;1.33;;
68989;SDS011;56046;47.270;11.368;2023-08-06T07:04:28;1.80;;;0.90;;
68989;SDS011;56046;47.270;11.368;2023-08-06T07:06:54;1.93;;;0.90;;
68989;SDS011;56046;47.270;11.368;2023-08-06T07:09:19;2.20;;;1.17;;
68989;SDS011;56046;47.270;11.368;2023-08-06T07:11:44;1.90;;;1.30;;
68989;SDS011;56046;47.270;11.368;2023-08-06T07:14:09;1.93;;;1.30;;
68989;SDS011;56046;47.270;11.368;2023-08-06T07:16:35;2.00;;;1.37;;
68989;SDS011;56046;47.270;11.368;2023-08-06T07:19:00;2.70;;;1.03;;
68989;SDS011;56046;47.270;11.368;2023-08-06T07:21:25;2.17;;;0.95;;
68989;SDS011;56046;47.270;11.368;2023-08-06T07:23:51;2.97;;;1.30;;
68989;SDS011;56046;47.270;11.368;2023-08-06T07:26:16;1.60;;;0.80;;
68989;SDS011;56046;47.270;11.368;2023-08-06T07:28:41;2.10;;;1.47;;
68989;SDS011;56046;47.270;11.368;2023-08-06T07:31:07;2.00;;;0.90;;
68989;SDS011;56046;47.270;11.368;2023-08-06T07:33:32;2.63;;;1.00;;
68989;SDS011;56046;47.270;11.368;2023-08-06T07:35:57;1.37;;;0.83;;
68989;SDS011;56046;47.270;11.368;2023-08-06T07:38:22;1.80;;;1.13;;
68989;SDS011;56046;47.270;11.368;2023-08-06T07:40:48;2.20;;;1.57;;
68989;SDS011;56046;47.270;11.368;2023-08-06T07:43:13;2.17;;;1.40;;
68989;SDS011;56046;47.270;11.368;2023-08-06T07:45:38;2.07;;;1.30;;
68989;SDS011;56046;47.270;11.368;2023-08-06T07:48:03;1.57;;;1.00;;
68989;SDS011;56046;47.270;11.368;2023-08-06T07:50:29;2.40;;;1.43;;
68989;SDS011;56046;47.270;11.368;2023-08-06T07:52:54;2.77;;;1.33;;
68989;SDS011;56046;47.270;11.368;2023-08-06T07:55:20;2.57;;;1.30;;
68989;SDS011;56046;47.270;11.368;2023-08-06T07:57:45;1.70;;;1.20;;
68989;SDS011;56046;47.270;11.368;2023-08-06T08:00:10;2.17;;;1.20;;
68989;SDS011;56046;47.270;11.368;2023-08-06T08:02:36;3.30;;;1.50;;
68989;SDS011;56046;47.270;11.368;2023-08-06T08:05:01;2.23;;;1.53;;
68989;SDS011;56046;47.270;11.368;2023-08-06T08:07:26;2.20;;;1.63;;
68989;SDS011;56046;47.270;11.368;2023-08-06T08:09:54;3.85;;;1.50;;
68989;SDS011;56046;47.270;11.368;2023-08-06T08:12:19;3.00;;;1.10;;
68989;SDS011;56046;47.270;11.368;2023-08-06T08:14:44;3.23;;;1.30;;
68989;SDS011;56046;47.270;11.368;2023-08-06T08:17:10;2.13;;;1.50;;
68989;SDS011;56046;47.270;11.368;2023-08-06T08:19:36;2.05;;;1.50;;
68989;SDS011;56046;47.270;11.368;2023-08-06T08:22:01;2.03;;;1.50;;
68989;SDS011;56046;47.270;11.368;2023-08-06T08:24:27;2.77;;;1.40;;
68989;SDS011;56046;47.270;11.368;2023-08-06T08:26:52;3.83;;;1.70;;
68989;SDS011;56046;47.270;11.368;2023-08-06T08:29:21;3.28;;;1.50;;
68989;SDS011;56046;47.270;11.368;2023-08-06T08:31:47;2.28;;;1.58;;
68989;SDS011;56046;47.270;11.368;2023-08-06T08:34:14;3.07;;;1.63;;
68989;SDS011;56046;47.270;11.368;2023-08-06T08:36:39;2.53;;;1.60;;
68989;SDS011;56046;47.270;11.368;2023-08-06T08:39:05;1.97;;;1.50;;
68989;SDS011;56046;47.270;11.368;2023-08-06T08:41:30;1.73;;;1.23;;
68989;SDS011;56046;47.270;11.368;2023-08-06T08:43:55;3.10;;;1.50;;
68989;SDS011;56046;47.270;11.368;2023-08-06T08:46:21;2.33;;;1.20;;
68989;SDS011;56046;47.270;11.368;2023-08-06T08:48:46;3.27;;;1.10;;
68989;SDS011;56046;47.270;11.368;2023-08-06T08:51:12;2.23;;;1.50;;
68989;SDS011;56046;47.270;11.368;2023-08-06T08:53:37;2.08;;;1.35;;
68989;SDS011;56046;47.270;11.368;2023-08-06T08:56:04;3.05;;;1.50;;
68989;SDS011;56046;47.270;11.368;2023-08-06T08:58:30;1.90;;;1.20;;
68989;SDS011;56046;47.270;11.368;2023-08-06T09:00:55;2.73;;;1.50;;
68989;SDS011;56046;47.270;11.368;2023-08-06T09:03:20;2.50;;;1.73;;
68989;SDS011;56046;47.270;11.368;2023-08-06T09:05:47;5.22;;;1.40;;
68989;SDS011;56046;47.270;11.368;2023-08-06T09:08:15;2.47;;;1.47;;
68989;SDS011;56046;47.270;11.368;2023-08-06T09:10:42;2.85;;;1.70;;
68989;SDS011;56046;47.270;11.368;2023-08-06T09:13:08;2.40;;;1.52;;
68989;SDS011;56046;47.270;11.368;2023-08-06T09:15:33;3.63;;;1.80;;
68989;SDS011;56046;47.270;11.368;2023-08-06T09:18:00;1.87;;;1.33;;
68989;SDS011;56046;47.270;11.368;2023-08-06T09:20:25;2.65;;;1.67;;
68989;SDS011;56046;47.270;11.368;2023-08-06T09:22:52;3.33;;;1.40;;
68989;SDS011;56046;47.270;11.368;2023-08-06T09:25:21;2.22;;;1.40;;
68989;SDS011;56046;47.270;11.368;2023-08-06T09:27:48;3.47;;;1.65;;
68989;SDS011;56046;47.270;11.368;2023-08-06T09:30:14;3.40;;;2.00;;
68989;SDS011;56046;47.270;11.368;2023-08-06T09:32:53;2.45;;;1.23;;
68989;SDS011;56046;47.270;11.368;2023-08-06T09:35:18;4.30;;;1.80;;
68989;SDS011;56046;47.270;11.368;2023-08-06T09:37:44;3.17;;;1.50;;
68989;SDS011;56046;47.270;11.368;2023-08-06T09:40:26;2.05;;;1.30;;
68989;SDS011;56046;47.270;11.368;2023-08-06T09:42:51;2.20;;;1.50;;
68989;SDS011;56046;47.270;11.368;2023-08-06T09:45:17;4.97;;;1.70;;
68989;SDS011;56046;47.270;11.368;2023-08-06T09:47:42;5.40;;;1.77;;
68989;SDS011;56046;47.270;11.368;2023-08-06T09:50:17;2.37;;;1.60;;
68989;SDS011;56046;47.270;11.368;2023-08-06T09:52:42;3.20;;;0.98;;
68989;SDS011;56046;47.270;11.368;2023-08-06T09:55:07;2.20;;;0.80;;
68989;SDS011;56046;47.270;11.368;2023-08-06T09:57:33;1.95;;;1.05;;
68989;SDS011;56046;47.270;11.368;2023-08-06T09:59:58;1.57;;;1.03;;
68989;SDS011;56046;47.270;11.368;2023-08-06T10:02:24;1.63;;;1.20;;
68989;SDS011;56046;47.270;11.368;2023-08-06T10:04:51;1.20;;;0.90;;
68989;SDS011;56046;47.270;11.368;2023-08-06T10:07:17;2.85;;;1.35;;
68989;SDS011;56046;47.270;11.368;2023-08-06T10:09:43;1.77;;;1.20;;
68989;SDS011;56046;47.270;11.368;2023-08-06T10:12:09;1.13;;;0.50;;
68989;SDS011;56046;47.270;11.368;2023-08-06T10:14:35;3.03;;;1.10;;
68989;SDS011;56046;47.270;11.368;2023-08-06T10:17:03;2.38;;;1.13;;
68989;SDS011;56046;47.270;11.368;2023-08-06T10:19:28;2.10;;;1.20;;
68989;SDS011;56046;47.270;11.368;2023-08-06T10:22:13;1.92;;;1.17;;
68989;SDS011;56046;47.270;11.368;2023-08-06T10:24:45;3.03;;;1.10;;
68989;SDS011;56046;47.270;11.368;2023-08-06T10:27:10;4.60;;;2.00;;
68989;SDS011;56046;47.270;11.368;2023-08-06T10:29:36;4.17;;;1.90;;
68989;SDS011;56046;47.270;11.368;2023-08-06T10:32:01;2.55;;;0.90;;
68989;SDS011;56046;47.270;11.368;2023-08-06T10:37:10;2.13;;;1.02;;
68989;SDS011;56046;47.270;11.368;2023-08-06T10:39:36;1.93;;;1.30;;
68989;SDS011;56046;47.270;11.368;2023-08-06T10:42:01;1.97;;;1.40;;
68989;SDS011;56046;47.270;11.368;2023-08-06T10:44:26;1.33;;;0.80;;
68989;SDS011;56046;47.270;11.368;2023-08-06T10:46:52;1.90;;;1.10;;
68989;SDS011;56046;47.270;11.368;2023-08-06T10:49:17;1.20;;;1.00;;
68989;SDS011;56046;47.270;11.368;2023-08-06T10:51:42;5.23;;;1.47;;
68989;SDS011;56046;47.270;11.368;2023-08-06T10:54:08;1.00;;;0.70;;
68989;SDS011;56046;47.270;11.368;2023-08-06T10:56:39;1.40;;;1.20;;
68989;SDS011;56046;47.270;11.368;2023-08-06T10:59:04;2.78;;;1.42;;
68989;SDS011;56046;47.270;11.368;2023-08-06T11:01:29;1.10;;;1.00;;
68989;SDS011;56046;47.270;11.368;2023-08-06T11:03:55;2.00;;;1.10;;
68989;SDS011;56046;47.270;11.368;2023-08-06T11:06:21;1.07;;;0.87;;
68989;SDS011;56046;47.270;11.368;2023-08-06T11:08:48;1.50;;;0.90;;
68989;SDS011;56046;47.270;11.368;2023-08-06T11:11:14;1.20;;;0.70;;
68989;SDS011;56046;47.270;11.368;2023-08-06T11:13:49;1.17;;;1.08;;
68989;SDS011;56046;47.270;11.368;2023-08-06T11:16:21;1.38;;;0.70;;
68989;SDS011;56046;47.270;11.368;2023-08-06T11:18:49;1.00;;;0.90;;
68989;SDS011;56046;47.270;11.368;2023-08-06T11:21:14;1.03;;;0.73;;
68989;SDS011;56046;47.270;11.368;2023-08-06T11:23:43;1.10;;;1.00;;
68989;SDS011;56046;47.270;11.368;2023-08-06T11:26:08;1.00;;;0.90;;
68989;SDS011;56046;47.270;11.368;2023-08-06T11:28:33;0.40;;;0.40;;
68989;SDS011;56046;47.270;11.368;2023-08-06T11:30:59;1.77;;;0.80;;
68989;SDS011;56046;47.270;11.368;2023-08-06T11:33:27;0.73;;;0.73;;
68989;SDS011;56046;47.270;11.368;2023-08-06T11:35:56;1.63;;;0.90;;
68989;SDS011;56046;47.270;11.368;2023-08-06T11:38:22;0.50;;;0.43;;
68989;SDS011;56046;47.270;11.368;2023-08-06T11:40:49;2.58;;;0.63;;
68989;SDS011;56046;47.270;11.368;2023-08-06T11:43:15;0.82;;;0.50;;
68989;SDS011;56046;47.270;11.368;2023-08-06T11:45:40;0.97;;;0.80;;
68989;SDS011;56046;47.270;11.368;2023-08-06T11:48:06;1.60;;;0.63;;
68989;SDS011;56046;47.270;11.368;2023-08-06T11:50:31;0.70;;;0.70;;
68989;SDS011;56046;47.270;11.368;2023-08-06T11:53:01;1.42;;;0.80;;
68989;SDS011;56046;47.270;11.368;2023-08-06T11:55:27;1.20;;;0.60;;
68989;SDS011;56046;47.270;11.368;2023-08-06T11:57:53;0.77;;;0.70;;
68989;SDS011;56046;47.270;11.368;2023-08-06T12:00:18;0.97;;;0.70;;
68989;SDS011;56046;47.270;11.368;2023-08-06T12:02:46;0.90;;;0.80;;
68989;SDS011;56046;47.270;11.368;2023-08-06T12:07:49;1.75;;;0.73;;
68989;SDS011;56046;47.270;11.368;2023-08-06T12:10:15;0.73;;;0.68;;
68989;SDS011;56046;47.270;11.368;2023-08-06T12:12:41;0.80;;;0.75;;
68989;SDS011;56046;47.270;11.368;2023-08-06T12:15:07;0.80;;;0.80;;
68989;SDS011;56046;47.270;11.368;2023-08-06T12:17:33;2.10;;;0.80;;
68989;SDS011;56046;47.270;11.368;2023-08-06T12:19:58;0.80;;;0.80;;
68989;SDS011;56046;47.270;11.368;2023-08-06T12:22:23;0.67;;;0.67;;
68989;SDS011;56046;47.270;11.368;2023-08-06T12:24:51;0.83;;;0.83;;
68989;SDS011;56046;47.270;11.368;2023-08-06T12:27:17;1.10;;;1.00;;
68989;SDS011;56046;47.270;11.368;2023-08-06T12:29:47;0.90;;;0.80;;
68989;SDS011;56046;47.270;11.368;2023-08-06T12:32:13;0.93;;;0.70;;
68989;SDS011;56046;47.270;11.368;2023-08-06T12:34:38;1.13;;;0.90;;
68989;SDS011;56046;47.270;11.368;2023-08-06T12:37:04;0.97;;;0.90;;
68989;SDS011;56046;47.270;11.368;2023-08-06T12:39:30;0.80;;;0.80;;
68989;SDS011;56046;47.270;11.368;2023-08-06T12:41:56;0.70;;;0.70;;
68989;SDS011;56046;47.270;11.368;2023-08-06T12:44:23;1.00;;;0.60;;
68989;SDS011;56046;47.270;11.368;2023-08-06T12:46:48;0.70;;;0.70;;
68989;SDS011;56046;47.270;11.368;2023-08-06T12:49:13;1.20;;;0.80;;
68989;SDS011;56046;47.270;11.368;2023-08-06T12:51:38;0.80;;;0.80;;
68989;SDS011;56046;47.270;11.368;2023-08-06T12:54:04;0.40;;;0.40;;
68989;SDS011;56046;47.270;11.368;2023-08-06T12:56:29;0.80;;;0.80;;
68989;SDS011;56046;47.270;11.368;2023-08-06T12:58:54;0.90;;;0.90;;
68989;SDS011;56046;47.270;11.368;2023-08-06T13:01:20;0.93;;;0.90;;
68989;SDS011;56046;47.270;11.368;2023-08-06T13:03:45;0.85;;;0.73;;
68989;SDS011;56046;47.270;11.368;2023-08-06T13:06:11;0.73;;;0.73;;
68989;SDS011;56046;47.270;11.368;2023-08-06T13:08:37;0.75;;;0.73;;
68989;SDS011;56046;47.270;11.368;2023-08-06T13:11:04;0.63;;;0.63;;
68989;SDS011;56046;47.270;11.368;2023-08-06T13:13:30;0.70;;;0.70;;
68989;SDS011;56046;47.270;11.368;2023-08-06T13:15:56;0.50;;;0.50;;
68989;SDS011;56046;47.270;11.368;2023-08-06T13:18:21;0.77;;;0.60;;
68989;SDS011;56046;47.270;11.368;2023-08-06T13:20:47;0.45;;;0.45;;
68989;SDS011;56046;47.270;11.368;2023-08-06T13:23:14;1.00;;;0.77;;
68989;SDS011;56046;47.270;11.368;2023-08-06T13:25:42;0.70;;;0.70;;
68989;SDS011;56046;47.270;11.368;2023-08-06T13:28:07;0.77;;;0.70;;
68989;SDS011;56046;47.270;11.368;2023-08-06T13:30:33;1.08;;;0.73;;
68989;SDS011;56046;47.270;11.368;2023-08-06T13:33:07;3.03;;;0.70;;
68989;SDS011;56046;47.270;11.368;2023-08-06T13:35:33;0.70;;;0.70;;
68989;SDS011;56046;47.270;11.368;2023-08-06T13:37:59;0.80;;;0.80;;
68989;SDS011;56046;47.270;11.368;2023-08-06T13:40:25;1.20;;;0.80;;
68989;SDS011;56046;47.270;11.368;2023-08-06T13:42:50;0.50;;;0.50;;
68989;SDS011;56046;47.270;11.368;2023-08-06T13:45:16;0.70;;;0.70;;
68989;SDS011;56046;47.270;11.368;2023-08-06T13:47:42;0.90;;;0.90;;
68989;SDS011;56046;47.270;11.368;2023-08-06T13:50:07;0.93;;;0.90;;
68989;SDS011;56046;47.270;11.368;2023-08-06T13:52:33;0.70;;;0.50;;
68989;SDS011;56046;47.270;11.368;2023-08-06T13:55:01;0.82;;;0.82;;
68989;SDS011;56046;47.270;11.368;2023-08-06T13:57:29;0.80;;;0.80;;
68989;SDS011;56046;47.270;11.368;2023-08-06T13:59:54;0.90;;;0.90;;
68989;SDS011;56046;47.270;11.368;2023-08-06T14:02:22;0.70;;;0.70;;
68989;SDS011;56046;47.270;11.368;2023-08-06T14:04:47;0.68;;;0.68;;
68989;SDS011;56046;47.270;11.368;2023-08-06T14:07:13;0.87;;;0.87;;
68989;SDS011;56046;47.270;11.368;2023-08-06T14:09:39;1.10;;;0.60;;
68989;SDS011;56046;47.270;11.368;2023-08-06T14:12:05;1.80;;;0.95;;
68989;SDS011;56046;47.270;11.368;2023-08-06T14:14:31;0.80;;;0.80;;
68989;SDS011;56046;47.270;11.368;2023-08-06T14:16:57;0.80;;;0.80;;
68989;SDS011;56046;47.270;11.368;2023-08-06T14:19:23;0.70;;;0.70;;
68989;SDS011;56046;47.270;11.368;2023-08-06T14:21:49;0.50;;;0.50;;
68989;SDS011;56046;47.270;11.368;2023-08-06T14:24:15;0.43;;;0.43;;
68989;SDS011;56046;47.270;11.368;2023-08-06T14:26:41;0.50;;;0.50;;
68989;SDS011;56046;47.270;11.368;2023-08-06T14:29:06;0.80;;;0.80;;
68989;SDS011;56046;47.270;11.368;2023-08-06T14:31:32;0.73;;;0.73;;
68989;SDS011;56046;47.270;11.368;2023-08-06T14:33:58;1.48;;;0.85;;
68989;SDS011;56046;47.270;11.368;2023-08-06T14:36:26;1.77;;;0.80;;
68989;SDS011;56046;47.270;11.368;2023-08-06T14:38:51;0.70;;;0.70;;